Airfield :
LOGIN :

Register | Disclaimer

   EN    FR    IT 

 










Legend :    VFR   Marginal VFR   IFR   Intensive IFR   Very Intensive IFR
Visi :
Ceiling :
>= 8 km
>= 3000ft
5 to 8 km
1000 to 3000 ft
1500m to 5 km
500 to 1000 ft
800 to 1500m
200 to 500 ft
< 800m
< 200 ft
Symbols :   Thunderstorms  Fog  Heavy snow  Heavy precipitations  Wind > 20 kt
SIGMETs :     Misc.  Thunderstorms  Icing  Turbulence  Mountain Waves  Volcanic Ashes







- Airport Elevation : 122 ft
- IATA code : TXL


EDDT - Berlin Tegel Int.

CURRENT METAR :
  • 220250Z 30008KT 270V340 9000 BKN005 14/13 Q1009 NOSIG

EXPIRED METARs :
  • 220220Z 30005KT 250V350 9999 BKN006 14/13 Q1009
  • 220150Z 30007KT 260V350 9999 BKN005 14/13 Q1009
  • 220120Z 29009KT 260V320 8000 BKN005 14/13 Q1009
  • 220050Z 29010KT 260V320 8000 BKN006 14/13 Q1009
  • 220020Z 29010KT 250V330 7000 BKN005 15/14 Q1008

TAF TAF EDDT
Valid from the 22 at 00:00 until the 23 at 00:00 UTC


212300Z 2200/2224 30010KT 9999 SCT011 BKN020
BECMG 2200/2204 30015KT BKN007
PROB40
TEMPO 2203/2209 4500 -RADZ BKN004
BECMG 2208/2212 SCT009 BKN013
TEMPO 2209/2216 30015G25KT
BECMG 2214/2218 30010KT SCT013 BKN035
No reported NOTAMs for that airfield.



MET'MAP, your aeronautical weather chart ! - Copyright ORBIFLY December 2007 - Disclaimer

ORBIFLY MET'MAP TEAM :

Programming & Development : Alexandra Zaïnal
Concept & Development : Baudouin d'Aumeries
Co-Development & Prog : Marc-Olivier Méhu
Technical & hardware support : Manuel Goepfert

Contact : metmap@orbifly.com




SOURCES & CREDITS :

   NOAA